sensor_id;sensor_type;location;lat;lon;timestamp;temperature;humidity
12329;DHT22;6230;52.390;10.256;2023-04-29T00:00:26;15.90;74.50
12329;DHT22;6230;52.390;10.256;2023-04-29T00:02:51;15.90;74.50
12329;DHT22;6230;52.390;10.256;2023-04-29T00:05:17;15.90;74.50
12329;DHT22;6230;52.390;10.256;2023-04-29T00:07:43;15.90;74.50
12329;DHT22;6230;52.390;10.256;2023-04-29T00:10:09;15.80;74.60
12329;DHT22;6230;52.390;10.256;2023-04-29T00:12:36;15.80;74.60
12329;DHT22;6230;52.390;10.256;2023-04-29T00:15:02;15.80;74.70
12329;DHT22;6230;52.390;10.256;2023-04-29T00:17:27;15.70;74.80
12329;DHT22;6230;52.390;10.256;2023-04-29T00:19:53;15.70;74.80
12329;DHT22;6230;52.390;10.256;2023-04-29T00:22:19;15.80;74.90
12329;DHT22;6230;52.390;10.256;2023-04-29T00:24:46;15.70;74.80
12329;DHT22;6230;52.390;10.256;2023-04-29T00:27:11;15.70;74.80
12329;DHT22;6230;52.390;10.256;2023-04-29T00:29:37;15.70;74.90
12329;DHT22;6230;52.390;10.256;2023-04-29T00:32:02;15.70;74.90
12329;DHT22;6230;52.390;10.256;2023-04-29T00:34:28;15.70;74.90
12329;DHT22;6230;52.390;10.256;2023-04-29T00:36:54;15.60;74.80
12329;DHT22;6230;52.390;10.256;2023-04-29T00:39:19;15.60;74.80
12329;DHT22;6230;52.390;10.256;2023-04-29T00:41:45;15.60;74.90
12329;DHT22;6230;52.390;10.256;2023-04-29T00:44:10;15.60;74.80
12329;DHT22;6230;52.390;10.256;2023-04-29T00:46:36;15.60;74.80
12329;DHT22;6230;52.390;10.256;2023-04-29T00:49:02;15.60;74.80
12329;DHT22;6230;52.390;10.256;2023-04-29T00:51:29;15.70;74.90
12329;DHT22;6230;52.390;10.256;2023-04-29T00:53:54;15.60;74.80
12329;DHT22;6230;52.390;10.256;2023-04-29T00:56:20;15.60;74.70
12329;DHT22;6230;52.390;10.256;2023-04-29T00:58:46;15.60;74.80
12329;DHT22;6230;52.390;10.256;2023-04-29T01:01:18;15.60;74.70
12329;DHT22;6230;52.390;10.256;2023-04-29T01:03:44;15.60;74.80
12329;DHT22;6230;52.390;10.256;2023-04-29T01:06:35;15.60;74.70
12329;DHT22;6230;52.390;10.256;2023-04-29T01:09:26;15.60;74.80
12329;DHT22;6230;52.390;10.256;2023-04-29T01:12:25;15.50;74.70
12329;DHT22;6230;52.390;10.256;2023-04-29T01:15:08;15.50;74.80
12329;DHT22;6230;52.390;10.256;2023-04-29T01:17:50;15.50;74.60
12329;DHT22;6230;52.390;10.256;2023-04-29T01:20:20;15.50;74.70
12329;DHT22;6230;52.390;10.256;2023-04-29T01:22:46;15.50;74.50
12329;DHT22;6230;52.390;10.256;2023-04-29T01:25:13;15.50;74.60
12329;DHT22;6230;52.390;10.256;2023-04-29T01:30:40;15.40;74.70
12329;DHT22;6230;52.390;10.256;2023-04-29T01:33:21;15.40;74.80
12329;DHT22;6230;52.390;10.256;2023-04-29T01:36:06;15.40;74.60
12329;DHT22;6230;52.390;10.256;2023-04-29T01:38:48;15.40;74.70
12329;DHT22;6230;52.390;10.256;2023-04-29T01:41:22;15.40;74.50
12329;DHT22;6230;52.390;10.256;2023-04-29T01:43:51;15.40;74.60
12329;DHT22;6230;52.390;10.256;2023-04-29T01:46:17;15.40;74.60
12329;DHT22;6230;52.390;10.256;2023-04-29T01:48:43;15.30;74.70
12329;DHT22;6230;52.390;10.256;2023-04-29T01:51:09;15.30;74.70
12329;DHT22;6230;52.390;10.256;2023-04-29T01:53:35;15.30;74.90
12329;DHT22;6230;52.390;10.256;2023-04-29T01:56:01;15.30;74.90
12329;DHT22;6230;52.390;10.256;2023-04-29T01:58:26;15.30;74.90
12329;DHT22;6230;52.390;10.256;2023-04-29T02:00:53;15.30;75.00
12329;DHT22;6230;52.390;10.256;2023-04-29T02:03:19;15.30;75.00
12329;DHT22;6230;52.390;10.256;2023-04-29T02:05:44;15.30;75.00
12329;DHT22;6230;52.390;10.256;2023-04-29T02:08:10;15.20;75.00
12329;DHT22;6230;52.390;10.256;2023-04-29T02:10:36;15.20;75.10
12329;DHT22;6230;52.390;10.256;2023-04-29T02:13:01;15.20;75.20
12329;DHT22;6230;52.390;10.256;2023-04-29T02:15:27;15.10;75.20
12329;DHT22;6230;52.390;10.256;2023-04-29T02:17:53;15.10;75.20
12329;DHT22;6230;52.390;10.256;2023-04-29T02:20:19;15.10;75.30
12329;DHT22;6230;52.390;10.256;2023-04-29T02:22:45;15.10;75.40
12329;DHT22;6230;52.390;10.256;2023-04-29T02:25:11;15.10;75.50
12329;DHT22;6230;52.390;10.256;2023-04-29T02:27:36;15.10;75.60
12329;DHT22;6230;52.390;10.256;2023-04-29T02:30:02;15.10;75.70
12329;DHT22;6230;52.390;10.256;2023-04-29T02:32:29;15.00;75.70
12329;DHT22;6230;52.390;10.256;2023-04-29T02:34:55;15.00;75.80
12329;DHT22;6230;52.390;10.256;2023-04-29T02:37:20;15.00;75.80
12329;DHT22;6230;52.390;10.256;2023-04-29T02:39:46;15.00;75.80
12329;DHT22;6230;52.390;10.256;2023-04-29T02:42:12;15.00;75.90
12329;DHT22;6230;52.390;10.256;2023-04-29T02:44:38;15.00;75.90
12329;DHT22;6230;52.390;10.256;2023-04-29T02:47:04;15.00;75.80
12329;DHT22;6230;52.390;10.256;2023-04-29T02:49:30;15.00;75.90
12329;DHT22;6230;52.390;10.256;2023-04-29T02:51:55;15.00;75.90
12329;DHT22;6230;52.390;10.256;2023-04-29T02:54:21;15.00;75.80
12329;DHT22;6230;52.390;10.256;2023-04-29T02:56:46;15.00;75.80
12329;DHT22;6230;52.390;10.256;2023-04-29T02:59:12;15.00;75.90
12329;DHT22;6230;52.390;10.256;2023-04-29T03:01:37;14.90;75.70
12329;DHT22;6230;52.390;10.256;2023-04-29T03:04:06;15.00;75.80
12329;DHT22;6230;52.390;10.256;2023-04-29T03:06:32;14.90;75.80
12329;DHT22;6230;52.390;10.256;2023-04-29T03:08:58;14.90;75.80
12329;DHT22;6230;52.390;10.256;2023-04-29T03:11:23;14.90;75.70
12329;DHT22;6230;52.390;10.256;2023-04-29T03:13:49;14.90;75.70
12329;DHT22;6230;52.390;10.256;2023-04-29T03:16:15;14.80;75.70
12329;DHT22;6230;52.390;10.256;2023-04-29T03:18:42;14.80;75.70
12329;DHT22;6230;52.390;10.256;2023-04-29T03:21:07;14.80;75.80
12329;DHT22;6230;52.390;10.256;2023-04-29T03:23:33;14.80;75.70
12329;DHT22;6230;52.390;10.256;2023-04-29T03:25:58;14.80;75.70
12329;DHT22;6230;52.390;10.256;2023-04-29T03:28:24;14.80;75.70
12329;DHT22;6230;52.390;10.256;2023-04-29T03:30:50;14.80;75.60
12329;DHT22;6230;52.390;10.256;2023-04-29T03:33:16;14.80;75.50
12329;DHT22;6230;52.390;10.256;2023-04-29T03:35:41;14.70;75.40
12329;DHT22;6230;52.390;10.256;2023-04-29T03:38:07;14.70;75.40
12329;DHT22;6230;52.390;10.256;2023-04-29T03:40:32;14.70;75.40
12329;DHT22;6230;52.390;10.256;2023-04-29T03:42:58;14.60;75.40
12329;DHT22;6230;52.390;10.256;2023-04-29T03:45:25;14.60;75.40
12329;DHT22;6230;52.390;10.256;2023-04-29T03:47:50;14.60;75.30
12329;DHT22;6230;52.390;10.256;2023-04-29T03:50:17;14.50;75.30
12329;DHT22;6230;52.390;10.256;2023-04-29T03:52:43;14.50;75.30
12329;DHT22;6230;52.390;10.256;2023-04-29T03:55:08;14.50;75.30
12329;DHT22;6230;52.390;10.256;2023-04-29T03:57:34;14.40;75.30
12329;DHT22;6230;52.390;10.256;2023-04-29T04:00:00;14.40;75.30
12329;DHT22;6230;52.390;10.256;2023-04-29T04:02:25;14.40;75.30
12329;DHT22;6230;52.390;10.256;2023-04-29T04:04:51;14.40;75.20
12329;DHT22;6230;52.390;10.256;2023-04-29T04:07:19;14.40;75.20
12329;DHT22;6230;52.390;10.256;2023-04-29T04:09:45;14.40;75.20
12329;DHT22;6230;52.390;10.256;2023-04-29T04:12:10;14.30;75.20
12329;DHT22;6230;52.390;10.256;2023-04-29T04:14:36;14.30;75.20
12329;DHT22;6230;52.390;10.256;2023-04-29T04:17:01;14.30;75.20
12329;DHT22;6230;52.390;10.256;2023-04-29T04:19:28;14.30;75.20
12329;DHT22;6230;52.390;10.256;2023-04-29T04:21:54;14.20;75.20
12329;DHT22;6230;52.390;10.256;2023-04-29T04:24:20;14.20;75.20
12329;DHT22;6230;52.390;10.256;2023-04-29T04:26:45;14.20;75.30
12329;DHT22;6230;52.390;10.256;2023-04-29T04:29:11;14.20;75.30
12329;DHT22;6230;52.390;10.256;2023-04-29T04:31:36;14.20;75.30
12329;DHT22;6230;52.390;10.256;2023-04-29T04:34:02;14.20;75.30
12329;DHT22;6230;52.390;10.256;2023-04-29T04:36:28;14.20;75.20
12329;DHT22;6230;52.390;10.256;2023-04-29T04:38:53;14.10;75.30
12329;DHT22;6230;52.390;10.256;2023-04-29T04:41:19;14.10;75.30
12329;DHT22;6230;52.390;10.256;2023-04-29T04:43:44;14.10;75.30
12329;DHT22;6230;52.390;10.256;2023-04-29T04:46:11;14.10;75.30
12329;DHT22;6230;52.390;10.256;2023-04-29T04:48:37;14.10;75.40
12329;DHT22;6230;52.390;10.256;2023-04-29T04:51:09;14.10;75.40
12329;DHT22;6230;52.390;10.256;2023-04-29T04:53:35;14.10;75.60
12329;DHT22;6230;52.390;10.256;2023-04-29T04:56:02;14.10;75.50
12329;DHT22;6230;52.390;10.256;2023-04-29T04:58:27;14.00;75.50
12329;DHT22;6230;52.390;10.256;2023-04-29T05:00:55;14.00;75.40
12329;DHT22;6230;52.390;10.256;2023-04-29T05:03:20;14.00;75.50
12329;DHT22;6230;52.390;10.256;2023-04-29T05:05:55;14.00;75.50
12329;DHT22;6230;52.390;10.256;2023-04-29T05:08:20;14.00;75.60
12329;DHT22;6230;52.390;10.256;2023-04-29T05:10:46;14.00;75.50
12329;DHT22;6230;52.390;10.256;2023-04-29T05:13:11;13.90;75.50
12329;DHT22;6230;52.390;10.256;2023-04-29T05:15:37;13.90;75.50
12329;DHT22;6230;52.390;10.256;2023-04-29T05:18:03;13.90;75.60
12329;DHT22;6230;52.390;10.256;2023-04-29T05:20:28;13.90;75.60
12329;DHT22;6230;52.390;10.256;2023-04-29T05:22:54;13.80;75.70
12329;DHT22;6230;52.390;10.256;2023-04-29T05:25:19;13.80;75.80
12329;DHT22;6230;52.390;10.256;2023-04-29T05:27:45;13.70;75.90
12329;DHT22;6230;52.390;10.256;2023-04-29T05:30:11;13.70;75.90
12329;DHT22;6230;52.390;10.256;2023-04-29T05:32:37;13.70;76.00
12329;DHT22;6230;52.390;10.256;2023-04-29T05:35:02;13.70;75.90
12329;DHT22;6230;52.390;10.256;2023-04-29T05:37:28;13.70;75.90
12329;DHT22;6230;52.390;10.256;2023-04-29T05:39:56;13.70;75.80
12329;DHT22;6230;52.390;10.256;2023-04-29T05:42:22;13.70;75.70
12329;DHT22;6230;52.390;10.256;2023-04-29T05:44:48;13.80;75.80
12329;DHT22;6230;52.390;10.256;2023-04-29T05:47:14;13.80;75.70
12329;DHT22;6230;52.390;10.256;2023-04-29T05:49:39;13.80;75.70
12329;DHT22;6230;52.390;10.256;2023-04-29T05:52:05;13.80;75.60
12329;DHT22;6230;52.390;10.256;2023-04-29T05:54:34;13.80;75.60
12329;DHT22;6230;52.390;10.256;2023-04-29T05:57:00;13.80;75.60
12329;DHT22;6230;52.390;10.256;2023-04-29T05:59:31;13.80;75.60
12329;DHT22;6230;52.390;10.256;2023-04-29T06:01:58;13.80;75.70
12329;DHT22;6230;52.390;10.256;2023-04-29T06:04:24;13.70;75.60
12329;DHT22;6230;52.390;10.256;2023-04-29T06:06:51;13.70;75.60
12329;DHT22;6230;52.390;10.256;2023-04-29T06:09:18;13.70;75.60
12329;DHT22;6230;52.390;10.256;2023-04-29T06:11:45;13.70;75.50
12329;DHT22;6230;52.390;10.256;2023-04-29T06:14:10;13.70;75.50
12329;DHT22;6230;52.390;10.256;2023-04-29T06:16:36;13.80;75.50
12329;DHT22;6230;52.390;10.256;2023-04-29T06:19:02;13.80;75.40
12329;DHT22;6230;52.390;10.256;2023-04-29T06:21:27;13.80;75.40
12329;DHT22;6230;52.390;10.256;2023-04-29T06:23:53;13.80;75.30
12329;DHT22;6230;52.390;10.256;2023-04-29T06:26:19;13.90;75.20
12329;DHT22;6230;52.390;10.256;2023-04-29T06:28:46;13.90;75.20
12329;DHT22;6230;52.390;10.256;2023-04-29T06:31:12;13.90;75.90
12329;DHT22;6230;52.390;10.256;2023-04-29T06:33:37;13.80;75.00
12329;DHT22;6230;52.390;10.256;2023-04-29T06:36:03;13.90;75.00
12329;DHT22;6230;52.390;10.256;2023-04-29T06:38:29;13.80;74.90
12329;DHT22;6230;52.390;10.256;2023-04-29T06:40:55;13.80;74.90
12329;DHT22;6230;52.390;10.256;2023-04-29T06:43:28;13.90;75.00
12329;DHT22;6230;52.390;10.256;2023-04-29T06:45:54;13.80;74.90
12329;DHT22;6230;52.390;10.256;2023-04-29T06:48:19;13.80;74.80
12329;DHT22;6230;52.390;10.256;2023-04-29T06:50:53;13.80;74.90
12329;DHT22;6230;52.390;10.256;2023-04-29T06:53:19;13.80;75.00
12329;DHT22;6230;52.390;10.256;2023-04-29T06:55:45;13.80;74.90
12329;DHT22;6230;52.390;10.256;2023-04-29T06:58:14;13.80;74.90
12329;DHT22;6230;52.390;10.256;2023-04-29T07:00:44;13.70;75.00
12329;DHT22;6230;52.390;10.256;2023-04-29T07:03:09;13.80;75.10
12329;DHT22;6230;52.390;10.256;2023-04-29T07:05:36;13.80;75.00
12329;DHT22;6230;52.390;10.256;2023-04-29T07:08:03;13.80;75.00
12329;DHT22;6230;52.390;10.256;2023-04-29T07:10:29;13.80;74.90
12329;DHT22;6230;52.390;10.256;2023-04-29T07:12:55;13.90;75.00
12329;DHT22;6230;52.390;10.256;2023-04-29T07:15:21;13.90;75.00
12329;DHT22;6230;52.390;10.256;2023-04-29T07:17:46;13.90;75.00
12329;DHT22;6230;52.390;10.256;2023-04-29T07:20:12;14.00;75.10
12329;DHT22;6230;52.390;10.256;2023-04-29T07:22:38;14.00;74.90
12329;DHT22;6230;52.390;10.256;2023-04-29T07:25:04;14.10;75.00
12329;DHT22;6230;52.390;10.256;2023-04-29T07:27:33;14.10;75.00
12329;DHT22;6230;52.390;10.256;2023-04-29T07:29:59;14.20;75.00
12329;DHT22;6230;52.390;10.256;2023-04-29T07:32:25;14.20;74.80
12329;DHT22;6230;52.390;10.256;2023-04-29T07:34:51;14.30;74.60
12329;DHT22;6230;52.390;10.256;2023-04-29T07:37:17;14.30;74.50
12329;DHT22;6230;52.390;10.256;2023-04-29T07:39:43;14.30;74.50
12329;DHT22;6230;52.390;10.256;2023-04-29T07:42:08;14.40;74.40
12329;DHT22;6230;52.390;10.256;2023-04-29T07:44:34;14.50;74.50
12329;DHT22;6230;52.390;10.256;2023-04-29T07:47:00;14.60;74.40
12329;DHT22;6230;52.390;10.256;2023-04-29T07:49:26;14.70;74.20
12329;DHT22;6230;52.390;10.256;2023-04-29T07:51:52;14.80;74.00
12329;DHT22;6230;52.390;10.256;2023-04-29T07:54:17;14.90;73.90
12329;DHT22;6230;52.390;10.256;2023-04-29T07:56:44;14.90;73.60
12329;DHT22;6230;52.390;10.256;2023-04-29T07:59:10;14.90;73.60
12329;DHT22;6230;52.390;10.256;2023-04-29T08:01:35;15.00;73.50
12329;DHT22;6230;52.390;10.256;2023-04-29T08:04:01;15.10;73.30
12329;DHT22;6230;52.390;10.256;2023-04-29T08:06:26;15.10;73.90
12329;DHT22;6230;52.390;10.256;2023-04-29T08:08:53;15.10;73.00
12329;DHT22;6230;52.390;10.256;2023-04-29T08:11:21;15.10;72.90
12329;DHT22;6230;52.390;10.256;2023-04-29T08:13:50;15.00;72.80
12329;DHT22;6230;52.390;10.256;2023-04-29T08:16:16;15.10;72.80
12329;DHT22;6230;52.390;10.256;2023-04-29T08:18:41;15.10;72.60
12329;DHT22;6230;52.390;10.256;2023-04-29T08:21:07;15.00;72.50
12329;DHT22;6230;52.390;10.256;2023-04-29T08:23:33;15.20;72.50
12329;DHT22;6230;52.390;10.256;2023-04-29T08:26:00;15.20;72.30
12329;DHT22;6230;52.390;10.256;2023-04-29T08:28:25;15.30;72.10
12329;DHT22;6230;52.390;10.256;2023-04-29T08:30:52;15.30;71.90
12329;DHT22;6230;52.390;10.256;2023-04-29T08:33:17;15.30;71.60
12329;DHT22;6230;52.390;10.256;2023-04-29T08:35:43;15.30;71.40
12329;DHT22;6230;52.390;10.256;2023-04-29T08:38:09;15.30;71.40
12329;DHT22;6230;52.390;10.256;2023-04-29T08:40:42;15.40;71.50
12329;DHT22;6230;52.390;10.256;2023-04-29T08:43:09;15.50;71.20
12329;DHT22;6230;52.390;10.256;2023-04-29T08:45:35;15.50;71.10
12329;DHT22;6230;52.390;10.256;2023-04-29T08:48:07;15.60;70.80
12329;DHT22;6230;52.390;10.256;2023-04-29T08:50:37;15.70;70.80
12329;DHT22;6230;52.390;10.256;2023-04-29T08:53:05;15.90;70.80
12329;DHT22;6230;52.390;10.256;2023-04-29T08:55:35;16.20;70.50
12329;DHT22;6230;52.390;10.256;2023-04-29T08:58:01;16.40;70.10
12329;DHT22;6230;52.390;10.256;2023-04-29T09:00:30;16.60;69.50
12329;DHT22;6230;52.390;10.256;2023-04-29T09:02:56;16.70;68.90
12329;DHT22;6230;52.390;10.256;2023-04-29T09:05:23;16.80;68.80
12329;DHT22;6230;52.390;10.256;2023-04-29T09:07:50;16.80;68.50
12329;DHT22;6230;52.390;10.256;2023-04-29T09:10:17;16.90;68.30
12329;DHT22;6230;52.390;10.256;2023-04-29T09:12:43;17.10;68.10
12329;DHT22;6230;52.390;10.256;2023-04-29T09:15:09;17.20;67.60
12329;DHT22;6230;52.390;10.256;2023-04-29T09:17:41;17.20;66.90
12329;DHT22;6230;52.390;10.256;2023-04-29T09:22:49;17.10;66.10
12329;DHT22;6230;52.390;10.256;2023-04-29T09:25:15;17.10;66.30
12329;DHT22;6230;52.390;10.256;2023-04-29T09:27:41;17.20;66.20
12329;DHT22;6230;52.390;10.256;2023-04-29T09:30:07;17.30;66.10
12329;DHT22;6230;52.390;10.256;2023-04-29T09:32:33;17.50;66.10
12329;DHT22;6230;52.390;10.256;2023-04-29T09:35:23;17.70;65.60
12329;DHT22;6230;52.390;10.256;2023-04-29T09:37:50;18.00;64.70
12329;DHT22;6230;52.390;10.256;2023-04-29T09:40:32;18.10;64.30
12329;DHT22;6230;52.390;10.256;2023-04-29T09:42:58;18.00;63.20
12329;DHT22;6230;52.390;10.256;2023-04-29T09:45:39;17.80;63.40
12329;DHT22;6230;52.390;10.256;2023-04-29T09:48:07;17.80;63.50
12329;DHT22;6230;52.390;10.256;2023-04-29T09:50:33;17.90;63.80
12329;DHT22;6230;52.390;10.256;2023-04-29T09:53:01;18.10;63.50
12329;DHT22;6230;52.390;10.256;2023-04-29T09:55:27;18.20;62.60
12329;DHT22;6230;52.390;10.256;2023-04-29T09:57:54;18.20;62.30
12329;DHT22;6230;52.390;10.256;2023-04-29T10:00:20;18.20;62.10
12329;DHT22;6230;52.390;10.256;2023-04-29T10:02:47;18.10;62.00
12329;DHT22;6230;52.390;10.256;2023-04-29T10:05:15;18.10;61.80
12329;DHT22;6230;52.390;10.256;2023-04-29T10:07:41;18.00;61.70
12329;DHT22;6230;52.390;10.256;2023-04-29T10:10:08;18.00;61.60
12329;DHT22;6230;52.390;10.256;2023-04-29T10:12:35;18.00;61.60
12329;DHT22;6230;52.390;10.256;2023-04-29T10:17:32;18.10;61.80
12329;DHT22;6230;52.390;10.256;2023-04-29T10:20:05;18.30;61.60
12329;DHT22;6230;52.390;10.256;2023-04-29T10:25:09;18.40;59.90
12329;DHT22;6230;52.390;10.256;2023-04-29T10:27:36;18.40;60.10
12329;DHT22;6230;52.390;10.256;2023-04-29T10:30:01;18.20;60.00
12329;DHT22;6230;52.390;10.256;2023-04-29T10:32:29;18.10;60.00
12329;DHT22;6230;52.390;10.256;2023-04-29T10:34:58;18.10;60.30
12329;DHT22;6230;52.390;10.256;2023-04-29T10:37:24;18.30;60.50
12329;DHT22;6230;52.390;10.256;2023-04-29T10:42:48;18.60;59.60
12329;DHT22;6230;52.390;10.256;2023-04-29T10:45:28;18.60;59.00
12329;DHT22;6230;52.390;10.256;2023-04-29T10:50:31;18.40;59.50
12329;DHT22;6230;52.390;10.256;2023-04-29T10:53:00;18.50;59.50
12329;DHT22;6230;52.390;10.256;2023-04-29T10:55:25;18.40;59.20
12329;DHT22;6230;52.390;10.256;2023-04-29T10:57:55;18.40;59.10
12329;DHT22;6230;52.390;10.256;2023-04-29T11:00:32;18.40;59.10
12329;DHT22;6230;52.390;10.256;2023-04-29T11:03:00;18.50;59.10
12329;DHT22;6230;52.390;10.256;2023-04-29T11:05:36;18.50;58.90
12329;DHT22;6230;52.390;10.256;2023-04-29T11:08:11;18.50;58.50
12329;DHT22;6230;52.390;10.256;2023-04-29T11:10:40;18.40;58.60
12329;DHT22;6230;52.390;10.256;2023-04-29T11:13:25;18.50;58.80
12329;DHT22;6230;52.390;10.256;2023-04-29T11:16:10;18.50;58.60
12329;DHT22;6230;52.390;10.256;2023-04-29T11:19:06;18.70;58.50
12329;DHT22;6230;52.390;10.256;2023-04-29T11:21:35;18.70;58.20
12329;DHT22;6230;52.390;10.256;2023-04-29T11:24:02;18.70;58.30
12329;DHT22;6230;52.390;10.256;2023-04-29T11:26:34;18.70;58.40
12329;DHT22;6230;52.390;10.256;2023-04-29T11:28:59;18.70;58.50
12329;DHT22;6230;52.390;10.256;2023-04-29T11:31:29;18.90;58.50
12329;DHT22;6230;52.390;10.256;2023-04-29T11:33:55;19.00;58.10
12329;DHT22;6230;52.390;10.256;2023-04-29T11:36:20;19.10;57.80
12329;DHT22;6230;52.390;10.256;2023-04-29T11:38:46;19.20;57.70
12329;DHT22;6230;52.390;10.256;2023-04-29T11:41:12;19.30;57.60
12329;DHT22;6230;52.390;10.256;2023-04-29T11:43:37;19.50;57.60
12329;DHT22;6230;52.390;10.256;2023-04-29T11:46:14;19.60;57.10
12329;DHT22;6230;52.390;10.256;2023-04-29T11:48:48;19.70;56.60
12329;DHT22;6230;52.390;10.256;2023-04-29T11:51:17;19.80;56.30
12329;DHT22;6230;52.390;10.256;2023-04-29T11:53:44;19.80;56.10
12329;DHT22;6230;52.390;10.256;2023-04-29T11:56:10;19.70;55.80
12329;DHT22;6230;52.390;10.256;2023-04-29T11:58:36;19.60;55.70
12329;DHT22;6230;52.390;10.256;2023-04-29T12:01:03;19.50;55.30
12329;DHT22;6230;52.390;10.256;2023-04-29T12:03:31;19.40;55.10
12329;DHT22;6230;52.390;10.256;2023-04-29T12:05:57;19.30;55.20
12329;DHT22;6230;52.390;10.256;2023-04-29T12:08:24;19.20;55.30
12329;DHT22;6230;52.390;10.256;2023-04-29T12:10:55;19.10;55.30
12329;DHT22;6230;52.390;10.256;2023-04-29T12:13:23;19.10;55.50
12329;DHT22;6230;52.390;10.256;2023-04-29T12:15:52;19.20;55.40
12329;DHT22;6230;52.390;10.256;2023-04-29T12:18:18;19.30;55.20
12329;DHT22;6230;52.390;10.256;2023-04-29T12:20:44;19.30;55.00
12329;DHT22;6230;52.390;10.256;2023-04-29T12:23:14;19.30;54.80
12329;DHT22;6230;52.390;10.256;2023-04-29T12:25:40;19.20;54.70
12329;DHT22;6230;52.390;10.256;2023-04-29T12:28:13;19.10;54.70
12329;DHT22;6230;52.390;10.256;2023-04-29T12:30:38;19.10;55.00
12329;DHT22;6230;52.390;10.256;2023-04-29T12:33:08;19.00;54.30
12329;DHT22;6230;52.390;10.256;2023-04-29T12:35:34;19.00;54.20
12329;DHT22;6230;52.390;10.256;2023-04-29T12:38:00;19.00;54.10
12329;DHT22;6230;52.390;10.256;2023-04-29T12:40:27;19.00;54.30
12329;DHT22;6230;52.390;10.256;2023-04-29T12:42:53;19.20;54.30
12329;DHT22;6230;52.390;10.256;2023-04-29T12:45:32;19.20;54.10
12329;DHT22;6230;52.390;10.256;2023-04-29T12:47:59;19.30;53.70
12329;DHT22;6230;52.390;10.256;2023-04-29T12:50:31;19.30;53.80
12329;DHT22;6230;52.390;10.256;2023-04-29T12:53:01;19.30;53.70
12329;DHT22;6230;52.390;10.256;2023-04-29T12:55:28;19.20;53.70
12329;DHT22;6230;52.390;10.256;2023-04-29T12:57:53;19.10;53.90
12329;DHT22;6230;52.390;10.256;2023-04-29T13:00:19;19.00;53.90
12329;DHT22;6230;52.390;10.256;2023-04-29T13:02:45;19.00;53.90
12329;DHT22;6230;52.390;10.256;2023-04-29T13:05:12;18.90;53.90
12329;DHT22;6230;52.390;10.256;2023-04-29T13:07:38;18.80;53.80
12329;DHT22;6230;52.390;10.256;2023-04-29T13:10:04;18.80;54.00
12329;DHT22;6230;52.390;10.256;2023-04-29T13:12:31;18.90;54.00
12329;DHT22;6230;52.390;10.256;2023-04-29T13:17:25;19.00;53.40
12329;DHT22;6230;52.390;10.256;2023-04-29T13:19:50;19.00;53.10
12329;DHT22;6230;52.390;10.256;2023-04-29T13:22:16;19.00;53.20
12329;DHT22;6230;52.390;10.256;2023-04-29T13:24:42;19.00;53.10
12329;DHT22;6230;52.390;10.256;2023-04-29T13:27:07;18.90;53.20
12329;DHT22;6230;52.390;10.256;2023-04-29T13:29:33;18.90;53.10
12329;DHT22;6230;52.390;10.256;2023-04-29T13:31:59;18.80;53.20
12329;DHT22;6230;52.390;10.256;2023-04-29T13:34:24;18.80;53.30
12329;DHT22;6230;52.390;10.256;2023-04-29T13:36:50;18.70;53.30
12329;DHT22;6230;52.390;10.256;2023-04-29T13:39:16;18.70;53.20
12329;DHT22;6230;52.390;10.256;2023-04-29T13:41:41;18.70;53.20
12329;DHT22;6230;52.390;10.256;2023-04-29T13:44:07;18.70;53.30
12329;DHT22;6230;52.390;10.256;2023-04-29T13:46:33;18.70;53.30
12329;DHT22;6230;52.390;10.256;2023-04-29T13:48:58;18.80;53.20
12329;DHT22;6230;52.390;10.256;2023-04-29T13:51:24;18.90;53.20
12329;DHT22;6230;52.390;10.256;2023-04-29T13:53:50;18.90;53.10
12329;DHT22;6230;52.390;10.256;2023-04-29T13:56:15;18.90;52.80
12329;DHT22;6230;52.390;10.256;2023-04-29T13:58:41;18.90;52.80
12329;DHT22;6230;52.390;10.256;2023-04-29T14:01:07;18.90;52.90
12329;DHT22;6230;52.390;10.256;2023-04-29T14:03:32;18.80;52.70
12329;DHT22;6230;52.390;10.256;2023-04-29T14:05:58;18.80;52.70
12329;DHT22;6230;52.390;10.256;2023-04-29T14:08:24;18.80;52.70
12329;DHT22;6230;52.390;10.256;2023-04-29T14:10:49;18.80;52.70
12329;DHT22;6230;52.390;10.256;2023-04-29T14:13:15;18.80;52.70
12329;DHT22;6230;52.390;10.256;2023-04-29T14:15:42;18.80;52.80
12329;DHT22;6230;52.390;10.256;2023-04-29T14:18:07;18.80;52.80
12329;DHT22;6230;52.390;10.256;2023-04-29T14:20:34;18.80;52.70
12329;DHT22;6230;52.390;10.256;2023-04-29T14:23:00;18.70;52.60
12329;DHT22;6230;52.390;10.256;2023-04-29T14:25:26;18.70;52.70
12329;DHT22;6230;52.390;10.256;2023-04-29T14:27:51;18.70;52.90
12329;DHT22;6230;52.390;10.256;2023-04-29T14:30:17;18.70;53.00
12329;DHT22;6230;52.390;10.256;2023-04-29T14:32:42;18.70;53.00
12329;DHT22;6230;52.390;10.256;2023-04-29T14:35:08;18.70;53.00
12329;DHT22;6230;52.390;10.256;2023-04-29T14:37:34;18.70;53.10
12329;DHT22;6230;52.390;10.256;2023-04-29T14:40:00;18.60;53.10
12329;DHT22;6230;52.390;10.256;2023-04-29T14:42:25;18.70;53.20
12329;DHT22;6230;52.390;10.256;2023-04-29T14:44:51;18.60;53.00
12329;DHT22;6230;52.390;10.256;2023-04-29T14:47:18;18.60;52.90
12329;DHT22;6230;52.390;10.256;2023-04-29T14:49:44;18.50;52.90
12329;DHT22;6230;52.390;10.256;2023-04-29T14:52:09;18.50;52.90
12329;DHT22;6230;52.390;10.256;2023-04-29T14:54:35;18.50;52.90
12329;DHT22;6230;52.390;10.256;2023-04-29T14:57:00;18.40;52.90
12329;DHT22;6230;52.390;10.256;2023-04-29T14:59:26;18.40;53.00
12329;DHT22;6230;52.390;10.256;2023-04-29T15:01:54;18.40;53.10
12329;DHT22;6230;52.390;10.256;2023-04-29T15:04:20;18.40;53.10
12329;DHT22;6230;52.390;10.256;2023-04-29T15:06:47;18.40;53.10
12329;DHT22;6230;52.390;10.256;2023-04-29T15:09:13;18.50;53.00
12329;DHT22;6230;52.390;10.256;2023-04-29T15:11:38;18.50;53.00
12329;DHT22;6230;52.390;10.256;2023-04-29T15:14:04;18.50;52.70
12329;DHT22;6230;52.390;10.256;2023-04-29T15:16:30;18.50;52.70
12329;DHT22;6230;52.390;10.256;2023-04-29T15:18:56;18.60;52.90
12329;DHT22;6230;52.390;10.256;2023-04-29T15:21:22;18.60;52.90
12329;DHT22;6230;52.390;10.256;2023-04-29T15:23:47;18.70;52.70
12329;DHT22;6230;52.390;10.256;2023-04-29T15:26:13;18.70;52.60
12329;DHT22;6230;52.390;10.256;2023-04-29T15:28:39;18.70;52.50
12329;DHT22;6230;52.390;10.256;2023-04-29T15:31:05;18.70;52.60
12329;DHT22;6230;52.390;10.256;2023-04-29T15:33:30;18.70;52.70
12329;DHT22;6230;52.390;10.256;2023-04-29T15:35:57;18.70;52.70
12329;DHT22;6230;52.390;10.256;2023-04-29T15:38:23;18.70;52.90
12329;DHT22;6230;52.390;10.256;2023-04-29T15:40:48;18.70;53.50
12329;DHT22;6230;52.390;10.256;2023-04-29T15:43:14;18.60;52.80
12329;DHT22;6230;52.390;10.256;2023-04-29T15:45:40;18.70;52.70
12329;DHT22;6230;52.390;10.256;2023-04-29T15:48:25;18.60;52.60